createdAt,value
2022-12-11T00:01:20.098Z,5.95
2022-12-11T00:03:48.209Z,6.05
2022-12-11T00:06:18.538Z,7.57
2022-12-11T00:08:46.225Z,5.68
2022-12-11T00:11:15.401Z,7.82
2022-12-11T00:13:43.153Z,4.45
2022-12-11T00:16:10.664Z,4.45
2022-12-11T00:18:37.873Z,7.38
2022-12-11T00:21:07.584Z,4.13
2022-12-11T00:23:36.326Z,4.57
2022-12-11T00:26:14.998Z,6.88
2022-12-11T00:28:43.603Z,4.78
2022-12-11T00:31:14.739Z,5.00
2022-12-11T00:33:42.970Z,6.68
2022-12-11T00:36:19.619Z,4.43
2022-12-11T00:38:47.070Z,5.95
2022-12-11T00:41:14.047Z,6.22
2022-12-11T00:43:41.303Z,3.75
2022-12-11T00:46:08.481Z,7.18
2022-12-11T00:48:35.643Z,8.38
2022-12-11T00:51:02.839Z,14.60
2022-12-11T00:53:30.461Z,21.90
2022-12-11T00:55:57.666Z,17.00
2022-12-11T00:58:24.764Z,15.95
2022-12-11T01:00:52.311Z,11.43
2022-12-11T01:03:19.496Z,7.57
2022-12-11T01:05:55.978Z,9.30
2022-12-11T01:08:23.076Z,8.68
2022-12-11T01:10:50.263Z,5.22
2022-12-11T01:13:17.482Z,4.47
2022-12-11T01:15:45.998Z,4.47
2022-12-11T01:18:15.565Z,4.55
2022-12-11T01:20:43.595Z,3.88
2022-12-11T01:23:13.497Z,5.25
2022-12-11T01:25:41.135Z,6.50
2022-12-11T01:28:09.118Z,6.15
2022-12-11T01:30:37.532Z,6.00
2022-12-11T01:33:04.615Z,6.72
2022-12-11T01:35:31.670Z,4.97
2022-12-11T01:37:59.545Z,5.53
2022-12-11T01:40:26.689Z,9.20
2022-12-11T01:42:53.827Z,6.00
2022-12-11T01:45:56.259Z,4.05
2022-12-11T01:48:27.830Z,4.30
2022-12-11T01:50:58.723Z,4.65
2022-12-11T01:53:31.173Z,3.90
2022-12-11T01:56:00.298Z,3.90
2022-12-11T01:58:32.525Z,3.22
2022-12-11T02:01:01.640Z,3.40
2022-12-11T02:03:28.807Z,3.25
2022-12-11T02:06:00.261Z,3.63
2022-12-11T02:08:27.520Z,4.63
2022-12-11T02:11:21.621Z,5.28
2022-12-11T02:14:03.557Z,4.00
2022-12-11T02:16:47.439Z,3.72
2022-12-11T02:19:20.529Z,3.78
2022-12-11T02:21:53.808Z,3.25
2022-12-11T02:25:05.547Z,5.03
2022-12-11T02:27:39.262Z,2.50
2022-12-11T02:32:40.542Z,3.47
2022-12-11T02:35:30.900Z,2.10
2022-12-11T02:38:10.988Z,2.35
2022-12-11T02:40:41.642Z,5.97
2022-12-11T02:43:14.061Z,2.83
2022-12-11T02:45:42.760Z,2.92
2022-12-11T02:48:11.921Z,5.85
2022-12-11T02:50:44.863Z,2.40
2022-12-11T02:53:16.255Z,5.43
2022-12-11T02:55:45.605Z,3.53
2022-12-11T02:58:20.409Z,5.00
2022-12-11T03:00:48.326Z,5.97
2022-12-11T03:03:15.749Z,6.32
2022-12-11T03:05:43.363Z,4.75
2022-12-11T03:08:10.746Z,7.47
2022-12-11T03:10:37.931Z,4.53
2022-12-11T03:13:05.548Z,7.57
2022-12-11T03:15:37.433Z,3.83
2022-12-11T03:18:14.092Z,4.65
2022-12-11T03:20:48.134Z,6.35
2022-12-11T03:23:21.915Z,6.50
2022-12-11T03:28:47.390Z,7.10
2022-12-11T03:31:22.836Z,6.07
2022-12-11T03:33:53.875Z,3.53
2022-12-11T03:36:27.496Z,4.85
2022-12-11T03:39:01.938Z,5.78
2022-12-11T03:41:34.552Z,5.40
2022-12-11T03:44:01.897Z,6.25
2022-12-11T03:46:33.245Z,3.03
2022-12-11T03:49:06.623Z,3.03
2022-12-11T03:51:35.547Z,3.28
2022-12-11T03:54:03.196Z,3.03
2022-12-11T03:56:34.564Z,6.40
2022-12-11T03:59:01.604Z,4.07
2022-12-11T04:01:28.830Z,2.88
2022-12-11T04:03:56.065Z,4.00
2022-12-11T04:06:23.218Z,3.95
2022-12-11T04:08:50.221Z,3.90
2022-12-11T04:11:35.344Z,4.57
2022-12-11T04:14:21.644Z,3.92
2022-12-11T04:16:48.909Z,5.00
2022-12-11T04:19:34.364Z,5.43
2022-12-11T04:22:20.096Z,7.25
2022-12-11T04:24:50.798Z,4.57
2022-12-11T04:27:38.705Z,5.68
2022-12-11T04:30:08.893Z,4.28
2022-12-11T04:32:36.007Z,6.65
2022-12-11T04:35:03.372Z,8.00
2022-12-11T04:37:30.663Z,5.90
2022-12-11T04:39:57.677Z,8.68
2022-12-11T04:42:24.791Z,6.32
2022-12-11T04:44:51.845Z,8.07
2022-12-11T04:47:18.896Z,6.75
2022-12-11T04:49:46.041Z,4.78
2022-12-11T04:52:13.159Z,5.13
2022-12-11T04:54:40.308Z,6.93
2022-12-11T04:57:07.450Z,5.60
2022-12-11T04:59:34.818Z,3.67
2022-12-11T05:02:01.973Z,3.47
2022-12-11T05:04:36.298Z,2.75
2022-12-11T05:07:03.344Z,3.42
2022-12-11T05:09:30.404Z,4.50
2022-12-11T05:11:57.537Z,3.38
2022-12-11T05:14:24.799Z,4.75
2022-12-11T05:16:51.883Z,2.92
2022-12-11T05:19:19.016Z,2.88
2022-12-11T05:21:46.025Z,3.90
2022-12-11T05:24:13.199Z,5.70
2022-12-11T05:26:40.200Z,4.93
2022-12-11T05:29:07.211Z,4.20
2022-12-11T05:31:34.375Z,5.15
2022-12-11T05:34:01.749Z,4.78
2022-12-11T05:36:31.480Z,2.90
2022-12-11T05:39:00.537Z,4.13
2022-12-11T05:41:29.563Z,4.78
2022-12-11T05:43:56.845Z,4.75
2022-12-11T05:46:30.167Z,8.85
2022-12-11T05:49:00.821Z,3.15
2022-12-11T05:51:29.116Z,4.43
2022-12-11T05:53:57.955Z,3.78
2022-12-11T05:56:28.489Z,4.28
2022-12-11T05:58:56.335Z,5.03
2022-12-11T06:01:35.699Z,6.55
2022-12-11T06:04:04.776Z,4.57
2022-12-11T06:06:32.496Z,4.05
2022-12-11T06:09:00.752Z,7.85
2022-12-11T06:11:30.115Z,5.43
2022-12-11T06:13:57.827Z,5.30
2022-12-11T06:16:25.722Z,5.10
2022-12-11T06:18:57.106Z,4.55
2022-12-11T06:21:28.308Z,3.83
2022-12-11T06:23:57.560Z,4.20
2022-12-11T06:26:25.304Z,3.10
2022-12-11T06:28:52.437Z,3.15
2022-12-11T06:31:20.020Z,4.35
2022-12-11T06:33:47.307Z,3.83
2022-12-11T06:36:18.005Z,5.30
2022-12-11T06:38:45.558Z,7.90
2022-12-11T06:41:13.013Z,4.30
2022-12-11T06:43:41.574Z,3.47
2022-12-11T06:46:11.692Z,4.60
2022-12-11T06:48:38.974Z,3.10
2022-12-11T06:51:08.654Z,5.05
2022-12-11T06:53:35.787Z,3.38
2022-12-11T06:56:08.493Z,2.97
2022-12-11T06:58:36.583Z,3.03
2022-12-11T07:01:05.367Z,3.78
2022-12-11T07:03:32.467Z,4.18
2022-12-11T07:06:02.850Z,2.90
2022-12-11T07:08:30.340Z,5.65
2022-12-11T07:11:04.221Z,1.58
2022-12-11T07:13:31.290Z,4.03
2022-12-11T07:15:59.757Z,4.40
2022-12-11T07:18:27.225Z,6.78
2022-12-11T07:20:54.317Z,3.50
2022-12-11T07:23:21.637Z,2.08
2022-12-11T07:25:48.625Z,2.92
2022-12-11T07:28:16.951Z,3.88
2022-12-11T07:30:44.056Z,4.97
2022-12-11T07:33:11.116Z,3.28
2022-12-11T07:35:38.442Z,2.92
2022-12-11T07:38:05.467Z,2.80
2022-12-11T07:40:34.040Z,3.30
2022-12-11T07:43:05.628Z,4.00
2022-12-11T07:45:32.700Z,4.95
2022-12-11T07:47:59.749Z,4.53
2022-12-11T07:50:26.867Z,4.68
2022-12-11T07:52:54.027Z,3.78
2022-12-11T07:55:21.152Z,4.30
2022-12-11T07:57:48.174Z,2.03
2022-12-11T08:00:15.539Z,4.97
2022-12-11T08:02:42.683Z,1.88
2022-12-11T08:05:10.388Z,3.75
2022-12-11T08:07:37.703Z,4.82
2022-12-11T08:10:05.654Z,2.63
2022-12-11T08:12:32.705Z,5.22
2022-12-11T08:14:59.967Z,3.25
2022-12-11T08:17:30.954Z,1.85
2022-12-11T08:20:01.049Z,2.90
2022-12-11T08:22:28.071Z,3.28
2022-12-11T08:24:55.115Z,3.05
2022-12-11T08:27:22.356Z,2.17
2022-12-11T08:29:49.501Z,4.32
2022-12-11T08:32:17.239Z,2.53
2022-12-11T08:34:44.612Z,4.47
2022-12-11T08:37:12.483Z,2.20
2022-12-11T08:39:39.548Z,2.47
2022-12-11T08:42:07.760Z,3.35
2022-12-11T08:44:34.859Z,2.13
2022-12-11T08:47:02.551Z,1.73
2022-12-11T08:49:34.167Z,1.83
2022-12-11T08:52:03.060Z,1.23
2022-12-11T08:54:30.340Z,2.17
2022-12-11T08:56:58.297Z,3.65
2022-12-11T08:59:26.055Z,1.05
2022-12-11T09:01:54.796Z,4.18
2022-12-11T09:04:22.446Z,2.03
2022-12-11T09:06:49.827Z,2.15
2022-12-11T09:09:16.955Z,2.15
2022-12-11T09:11:43.981Z,1.88
2022-12-11T09:14:10.964Z,1.98
2022-12-11T09:16:40.941Z,1.42
2022-12-11T09:19:11.822Z,1.10
2022-12-11T09:21:38.891Z,1.52
2022-12-11T09:24:06.298Z,1.45
2022-12-11T09:26:33.389Z,2.45
2022-12-11T09:29:06.578Z,2.67
2022-12-11T09:31:36.649Z,5.95
2022-12-11T09:34:09.698Z,5.82
2022-12-11T09:36:39.155Z,3.67
2022-12-11T09:39:08.511Z,4.32
2022-12-11T09:41:50.340Z,2.85
2022-12-11T09:44:51.122Z,1.80
2022-12-11T09:47:28.096Z,2.47
2022-12-11T09:50:10.361Z,2.08
2022-12-11T09:53:03.278Z,5.85
2022-12-11T09:55:38.609Z,2.97
2022-12-11T09:58:10.798Z,4.93
2022-12-11T10:00:44.438Z,6.55
2022-12-11T10:03:31.159Z,2.38
2022-12-11T10:06:26.123Z,2.70
2022-12-11T10:09:15.141Z,5.10
2022-12-11T10:11:57.258Z,4.38
2022-12-11T10:14:51.410Z,3.20
2022-12-11T10:17:26.693Z,5.07
2022-12-11T10:19:55.473Z,4.45
2022-12-11T10:22:30.247Z,3.05
2022-12-11T10:25:16.300Z,2.80
2022-12-11T10:27:45.069Z,3.00
2022-12-11T10:30:20.333Z,8.90
2022-12-11T10:32:53.173Z,4.53
2022-12-11T10:35:27.254Z,4.10
2022-12-11T10:38:02.015Z,2.60
2022-12-11T10:40:31.173Z,2.17
2022-12-11T10:42:58.209Z,3.00
2022-12-11T10:45:25.336Z,5.43
2022-12-11T10:48:03.417Z,4.95
2022-12-11T10:50:30.532Z,2.22
2022-12-11T10:52:57.980Z,5.18
2022-12-11T10:55:34.556Z,3.38
2022-12-11T10:58:04.634Z,1.98
2022-12-11T11:00:40.916Z,2.13
2022-12-11T11:03:26.987Z,2.25
2022-12-11T11:06:12.680Z,2.15
2022-12-11T11:08:45.815Z,2.42
2022-12-11T11:11:34.017Z,6.95
2022-12-11T11:14:23.291Z,5.05
2022-12-11T11:16:52.662Z,8.25
2022-12-11T11:19:35.347Z,3.78
2022-12-11T11:22:07.262Z,4.28
2022-12-11T11:24:42.046Z,5.15
2022-12-11T11:27:26.475Z,4.75
2022-12-11T11:30:00.301Z,8.32
2022-12-11T11:32:39.266Z,7.82
2022-12-11T11:35:12.816Z,8.23
2022-12-11T11:40:20.616Z,5.10
2022-12-11T11:42:59.859Z,8.48
2022-12-11T11:45:32.468Z,17.63
2022-12-11T11:48:12.049Z,21.20
2022-12-11T11:50:45.500Z,18.73
2022-12-11T11:53:30.848Z,16.63
2022-12-11T11:56:03.977Z,13.90
2022-12-11T11:58:43.926Z,9.70
2022-12-11T12:01:17.602Z,13.88
2022-12-11T12:06:39.164Z,17.88
2022-12-11T12:09:21.836Z,18.67
2022-12-11T12:12:09.961Z,15.23
2022-12-11T12:14:52.025Z,8.13
2022-12-11T12:17:36.518Z,10.52
2022-12-11T12:20:18.590Z,13.30
2022-12-11T12:23:03.717Z,17.95
2022-12-11T12:25:44.337Z,25.00
2022-12-11T12:28:11.383Z,26.95
2022-12-11T12:30:48.546Z,28.15
2022-12-11T12:33:21.460Z,17.15
2022-12-11T12:36:07.208Z,21.23
2022-12-11T12:39:01.584Z,42.83
2022-12-11T12:41:53.270Z,28.13
2022-12-11T12:44:24.247Z,25.85
2022-12-11T12:47:02.416Z,29.88
2022-12-11T12:49:51.640Z,21.13
2022-12-11T12:52:29.855Z,26.85
2022-12-11T12:55:14.595Z,29.10
2022-12-11T12:58:00.909Z,14.77
2022-12-11T13:00:28.165Z,14.45
2022-12-11T13:02:56.514Z,18.00
2022-12-11T13:05:33.165Z,15.10
2022-12-11T13:08:03.803Z,20.52
2022-12-11T13:10:37.442Z,12.70
2022-12-11T13:15:42.944Z,12.70
2022-12-11T13:18:33.687Z,12.90
2022-12-11T13:21:01.591Z,12.90
2022-12-11T13:23:31.932Z,10.93
2022-12-11T13:26:04.615Z,11.73
2022-12-11T13:28:51.342Z,10.15
2022-12-11T13:31:18.499Z,13.85
2022-12-11T13:33:55.242Z,14.32
2022-12-11T13:36:28.329Z,9.57
2022-12-11T13:39:01.249Z,11.90
2022-12-11T13:41:28.940Z,17.17
2022-12-11T13:43:57.819Z,15.18
2022-12-11T13:46:31.383Z,12.70
2022-12-11T13:49:02.098Z,18.83
2022-12-11T13:51:31.778Z,30.35
2022-12-11T13:54:04.866Z,33.08
2022-12-11T13:56:32.140Z,34.55
2022-12-11T13:58:59.268Z,24.80
2022-12-11T14:01:33.076Z,28.48
2022-12-11T14:04:07.285Z,19.33
2022-12-11T14:06:36.367Z,17.95
2022-12-11T14:09:04.834Z,15.02
2022-12-11T14:11:36.182Z,18.80
2022-12-11T14:14:07.069Z,20.08
2022-12-11T14:16:34.565Z,16.90
2022-12-11T14:19:05.687Z,30.63
2022-12-11T14:21:32.974Z,34.70
2022-12-11T14:24:06.868Z,26.80
2022-12-11T14:26:38.189Z,27.98
2022-12-11T14:29:06.235Z,22.10
2022-12-11T14:31:44.636Z,21.45
2022-12-11T14:34:19.271Z,14.25
2022-12-11T14:36:48.195Z,32.50
2022-12-11T14:39:19.539Z,38.47
2022-12-11T14:41:53.724Z,18.58
2022-12-11T14:44:24.571Z,25.83
2022-12-11T14:47:19.158Z,23.30
2022-12-11T14:49:52.385Z,21.13
2022-12-11T14:52:23.258Z,18.90
2022-12-11T14:55:27.894Z,17.95
2022-12-11T14:58:00.258Z,30.35
2022-12-11T15:00:30.501Z,33.63
2022-12-11T15:03:05.941Z,24.10
2022-12-11T15:05:40.577Z,26.55
2022-12-11T15:08:10.982Z,11.30
2022-12-11T15:10:42.001Z,12.57
2022-12-11T15:13:10.525Z,18.50
2022-12-11T15:15:48.120Z,19.77
2022-12-11T15:18:28.793Z,37.72
2022-12-11T15:21:02.258Z,22.73
2022-12-11T15:23:30.720Z,21.42
2022-12-11T15:26:00.431Z,24.55
2022-12-11T15:28:34.568Z,22.90
2022-12-11T15:31:29.121Z,14.23
2022-12-11T15:33:56.360Z,19.25
2022-12-11T15:36:26.858Z,20.83
2022-12-11T15:38:54.078Z,20.48
2022-12-11T15:41:21.965Z,25.92
2022-12-11T15:43:51.795Z,18.20
2022-12-11T15:46:22.720Z,11.57
2022-12-11T15:48:50.375Z,39.15
2022-12-11T15:51:17.652Z,24.30
2022-12-11T15:53:44.738Z,23.55
2022-12-11T15:56:18.174Z,27.08
2022-12-11T15:58:46.612Z,20.58
2022-12-11T16:01:13.729Z,20.38
2022-12-11T16:03:40.753Z,23.42
2022-12-11T16:06:12.615Z,15.52
2022-12-11T16:08:39.618Z,20.60
2022-12-11T16:11:06.776Z,40.13
2022-12-11T16:13:33.891Z,27.02
2022-12-11T16:16:00.907Z,17.27
2022-12-11T16:18:27.919Z,17.42
2022-12-11T16:20:55.113Z,14.57
2022-12-11T16:23:22.131Z,13.57
2022-12-11T16:25:49.299Z,17.40
2022-12-11T16:28:21.577Z,12.52
2022-12-11T16:30:48.822Z,18.85
2022-12-11T16:33:15.976Z,20.00
2022-12-11T16:35:43.171Z,23.40
2022-12-11T16:38:11.261Z,23.17
2022-12-11T16:40:39.208Z,17.42
2022-12-11T16:43:06.573Z,19.65
2022-12-11T16:45:34.197Z,14.77
2022-12-11T16:48:05.334Z,12.88
2022-12-11T16:50:32.726Z,9.02
2022-12-11T16:52:59.800Z,7.95
2022-12-11T16:55:26.855Z,16.05
2022-12-11T16:57:54.707Z,20.95
2022-12-11T17:00:21.780Z,13.45
2022-12-11T17:02:48.853Z,15.93
2022-12-11T17:05:15.987Z,12.95
2022-12-11T17:07:43.113Z,7.65
2022-12-11T17:10:11.067Z,8.07
2022-12-11T17:12:38.181Z,11.55
2022-12-11T17:15:05.688Z,6.82
2022-12-11T17:17:32.775Z,10.65
2022-12-11T17:19:59.842Z,4.72
2022-12-11T17:22:26.926Z,11.70
2022-12-11T17:24:54.040Z,19.83
2022-12-11T17:27:21.136Z,18.00
2022-12-11T17:29:49.931Z,12.60
2022-12-11T17:32:18.645Z,16.05
2022-12-11T17:34:48.290Z,5.47
2022-12-11T17:37:15.342Z,7.00
2022-12-11T17:39:42.498Z,5.88
2022-12-11T17:42:09.768Z,5.28
2022-12-11T17:44:37.395Z,5.95
2022-12-11T17:47:10.606Z,5.47
2022-12-11T17:49:39.721Z,3.65
2022-12-11T17:52:07.090Z,2.72
2022-12-11T17:54:34.271Z,3.92
2022-12-11T17:57:01.958Z,6.88
2022-12-11T17:59:29.015Z,10.20
2022-12-11T18:01:56.086Z,7.90
2022-12-11T18:04:23.268Z,6.20
2022-12-11T18:06:50.293Z,6.13
2022-12-11T18:09:17.341Z,9.38
2022-12-11T18:11:44.449Z,5.25
2022-12-11T18:14:16.959Z,7.78
2022-12-11T18:16:44.602Z,10.85
2022-12-11T18:19:11.744Z,4.25
2022-12-11T18:21:42.917Z,6.18
2022-12-11T18:24:10.780Z,18.73
2022-12-11T18:26:37.893Z,15.43
2022-12-11T18:29:05.543Z,6.55
2022-12-11T18:31:37.475Z,7.93
2022-12-11T18:34:07.964Z,8.25
2022-12-11T18:36:35.135Z,12.55
2022-12-11T18:39:02.236Z,11.13
2022-12-11T18:41:29.286Z,13.18
2022-12-11T18:43:56.360Z,10.90
2022-12-11T18:46:23.387Z,8.98
2022-12-11T18:48:51.032Z,9.82
2022-12-11T18:51:22.860Z,6.45
2022-12-11T18:53:50.209Z,8.35
2022-12-11T18:56:19.420Z,5.43
2022-12-11T18:58:47.052Z,3.15
2022-12-11T19:01:27.080Z,5.78
2022-12-11T19:04:02.423Z,5.10
2022-12-11T19:06:32.266Z,7.15
2022-12-11T19:09:00.409Z,5.78
2022-12-11T19:11:29.553Z,7.50
2022-12-11T19:13:57.914Z,4.85
2022-12-11T19:16:29.908Z,4.78
2022-12-11T19:19:01.610Z,5.43
2022-12-11T19:21:28.896Z,6.05
2022-12-11T19:23:56.171Z,6.97
2022-12-11T19:26:24.271Z,6.93
2022-12-11T19:28:53.147Z,8.43
2022-12-11T19:31:23.172Z,3.60
2022-12-11T19:33:50.543Z,5.15
2022-12-11T19:36:21.099Z,4.00
2022-12-11T19:38:48.873Z,5.05
2022-12-11T19:41:27.377Z,6.40
2022-12-11T19:43:57.649Z,7.82
2022-12-11T19:46:25.494Z,7.65
2022-12-11T19:48:54.693Z,10.50
2022-12-11T19:51:25.535Z,5.05
2022-12-11T19:53:52.597Z,4.78
2022-12-11T19:56:20.478Z,5.93
2022-12-11T19:58:49.232Z,4.40
2022-12-11T20:01:29.195Z,5.93
2022-12-11T20:03:59.784Z,7.82
2022-12-11T20:06:32.080Z,8.07
2022-12-11T20:08:59.513Z,6.30
2022-12-11T20:11:26.865Z,4.57
2022-12-11T20:13:55.878Z,4.88
2022-12-11T20:16:45.842Z,5.35
2022-12-11T20:19:10.964Z,4.40
2022-12-11T20:21:38.055Z,8.18
2022-12-11T20:24:05.307Z,5.18
2022-12-11T20:26:36.156Z,6.00
2022-12-11T20:29:07.543Z,9.68
2022-12-11T20:31:36.493Z,9.95
2022-12-11T20:34:04.614Z,8.68
2022-12-11T20:36:32.226Z,8.70
2022-12-11T20:38:59.743Z,9.18
2022-12-11T20:41:27.197Z,11.50
2022-12-11T20:43:54.799Z,9.13
2022-12-11T20:46:25.336Z,8.13
2022-12-11T20:48:53.210Z,10.98
2022-12-11T20:51:25.798Z,8.85
2022-12-11T20:54:01.449Z,6.38
2022-12-11T20:56:30.748Z,8.57
2022-12-11T20:58:59.396Z,13.40
2022-12-11T21:01:29.734Z,10.98
2022-12-11T21:03:57.090Z,8.98
2022-12-11T21:06:30.249Z,11.88
2022-12-11T21:08:59.030Z,9.95
2022-12-11T21:11:26.285Z,8.10
2022-12-11T21:13:53.793Z,7.68
2022-12-11T21:16:21.744Z,6.28
2022-12-11T21:18:49.261Z,8.77
2022-12-11T21:21:16.824Z,9.40
2022-12-11T21:23:44.185Z,9.80
2022-12-11T21:26:11.311Z,10.63
2022-12-11T21:28:38.807Z,8.77
2022-12-11T21:31:08.408Z,12.45
2022-12-11T21:33:36.420Z,10.75
2022-12-11T21:36:06.238Z,12.60
2022-12-11T21:38:33.421Z,7.45
2022-12-11T21:41:08.828Z,11.60
2022-12-11T21:43:35.916Z,15.57
2022-12-11T21:46:03.199Z,9.57
2022-12-11T21:48:30.784Z,12.70
2022-12-11T21:51:06.569Z,10.10
2022-12-11T21:53:33.877Z,8.00
2022-12-11T21:56:00.949Z,9.35
2022-12-11T21:58:28.001Z,6.72
2022-12-11T22:00:55.114Z,6.78
2022-12-11T22:03:22.259Z,6.68
2022-12-11T22:05:49.293Z,7.35
2022-12-11T22:08:16.392Z,5.05
2022-12-11T22:10:43.499Z,6.38
2022-12-11T22:13:10.623Z,5.90
2022-12-11T22:15:37.692Z,5.82
2022-12-11T22:18:05.003Z,4.15
2022-12-11T22:20:32.278Z,3.53
2022-12-11T22:22:59.265Z,2.50
2022-12-11T22:25:26.587Z,3.08
2022-12-11T22:27:53.669Z,3.17
2022-12-11T22:30:20.724Z,3.67
2022-12-11T22:32:47.812Z,3.50
2022-12-11T22:35:15.228Z,2.47
2022-12-11T22:37:42.618Z,6.32
2022-12-11T22:40:10.017Z,3.35
2022-12-11T22:42:37.252Z,5.35
2022-12-11T22:45:04.712Z,4.18
2022-12-11T22:47:31.846Z,4.85
2022-12-11T22:49:59.308Z,3.78
2022-12-11T22:52:26.667Z,2.75
2022-12-11T22:54:53.679Z,5.68
2022-12-11T22:57:20.802Z,6.35
2022-12-11T22:59:47.905Z,3.25
2022-12-11T23:02:15.680Z,4.10
2022-12-11T23:04:43.218Z,2.85
2022-12-11T23:07:10.281Z,3.78
2022-12-11T23:09:37.351Z,6.47
2022-12-11T23:12:04.600Z,4.13
2022-12-11T23:14:31.682Z,4.75
2022-12-11T23:16:58.738Z,5.70
2022-12-11T23:19:26.240Z,2.83
2022-12-11T23:21:53.790Z,5.13
2022-12-11T23:24:20.863Z,3.97
2022-12-11T23:26:48.350Z,2.13
2022-12-11T23:29:15.639Z,2.92
2022-12-11T23:31:43.051Z,2.42
2022-12-11T23:34:10.106Z,3.05
2022-12-11T23:36:37.301Z,2.90
2022-12-11T23:39:04.709Z,2.85
2022-12-11T23:41:31.716Z,2.22
2022-12-11T23:43:58.759Z,1.23
2022-12-11T23:46:26.059Z,1.02
2022-12-11T23:48:53.928Z,1.45
2022-12-11T23:51:23.281Z,0.98
2022-12-11T23:53:50.451Z,2.92
2022-12-11T23:56:23.820Z,2.25
2022-12-11T23:58:52.031Z,1.95
